Time;durP1;ratioP1;P1;durP2;ratioP2;P2;SDS_P1;SDS_P2;PMS_P1;PMS_P2;Temp;Humidity;BMP_temperature;BMP_pressure;BME280_temperature;BME280_humidity;BME280_pressure;Samples;Min_cycle;Max_cycle;Signal;HPM_P1;HPM_P2
2021/12/24 00:00:21;;;;;;;60.67;5.70;;;;;;;;;;5068714;28;20566;-64
2021/12/24 00:02:49;;;;;;;61.37;5.80;;;;;;;;;;5070530;28;20540;-63
2021/12/24 00:05:16;;;;;;;60.27;5.20;;;;;;;;;;5070830;28;20441;-64
2021/12/24 00:07:44;;;;;;;63.23;5.73;;;;;;;;;;5071096;28;20458;-64
2021/12/24 00:10:12;;;;;;;62.17;5.30;;;;;;;;;;5070771;28;20566;-66
2021/12/24 00:12:44;;;;;;;61.40;4.50;;;;;;;;;;5070958;28;20226;-65
2021/12/24 00:15:30;;;;;;;61.35;5.20;;;;;;;;;;5070885;28;20462;-67
2021/12/24 00:18:06;;;;;;;61.67;5.07;;;;;;;;;;5070771;28;20212;-64
2021/12/24 00:21:31;;;;;;;62.83;5.17;;;;;;;;;;5072830;28;20495;-66
2021/12/24 00:37:13;;;;;;;60.97;4.90;;;;;;;;;;5073815;28;20492;-65
2021/12/24 00:39:48;;;;;;;62.40;5.63;;;;;;;;;;5074068;28;20541;-64
2021/12/24 00:42:15;;;;;;;62.93;5.00;;;;;;;;;;5073952;28;20454;-65
2021/12/24 00:44:42;;;;;;;60.17;4.70;;;;;;;;;;5074034;28;20450;-65
2021/12/24 00:47:09;;;;;;;61.83;4.47;;;;;;;;;;5073377;28;20526;-65
2021/12/24 00:49:38;;;;;;;63.53;5.20;;;;;;;;;;5074059;28;20211;-65
2021/12/24 00:52:20;;;;;;;61.60;4.50;;;;;;;;;;5073972;28;20449;-64
2021/12/24 00:55:09;;;;;;;59.57;4.17;;;;;;;;;;5073979;28;20453;-65
2021/12/24 00:57:36;;;;;;;59.75;4.38;;;;;;;;;;5073348;28;20569;-64
2021/12/24 01:00:04;;;;;;;61.90;4.83;;;;;;;;;;5073763;28;20234;-65
2021/12/24 01:02:31;;;;;;;63.95;4.75;;;;;;;;;;5073550;28;20880;-64
2021/12/24 01:05:00;;;;;;;60.63;5.03;;;;;;;;;;5071778;28;20208;-66
2021/12/24 01:07:27;;;;;;;60.78;4.50;;;;;;;;;;5073455;28;20445;-65
2021/12/24 01:09:54;;;;;;;59.88;4.28;;;;;;;;;;5073313;28;21108;-64
2021/12/24 01:12:22;;;;;;;60.30;5.00;;;;;;;;;;5073631;28;20226;-65
2021/12/24 01:14:49;;;;;;;60.60;4.70;;;;;;;;;;5073601;28;20966;-64
2021/12/24 01:17:29;;;;;;;63.70;4.93;;;;;;;;;;5072741;28;20485;-65
2021/12/24 01:20:02;;;;;;;60.53;4.67;;;;;;;;;;5073379;28;20471;-64
2021/12/24 01:25:23;;;;;;;59.87;4.17;;;;;;;;;;5051931;28;20435;-65
2021/12/24 01:28:03;;;;;;;60.72;4.28;;;;;;;;;;5073383;28;20501;-65
2021/12/24 01:38:58;;;;;;;61.20;5.43;;;;;;;;;;5052738;28;20423;-65
2021/12/24 01:44:07;;;;;;;63.00;5.50;;;;;;;;;;5052771;28;20193;-65
2021/12/24 01:46:35;;;;;;;60.63;5.07;;;;;;;;;;5052605;28;20201;-63
2021/12/24 01:49:02;;;;;;;62.67;5.30;;;;;;;;;;5053149;28;20454;-65
2021/12/24 01:51:29;;;;;;;61.93;4.57;;;;;;;;;;5052224;28;20565;-64
2021/12/24 01:53:58;;;;;;;60.73;5.40;;;;;;;;;;5052505;28;20446;-65
2021/12/24 01:56:25;;;;;;;61.80;5.00;;;;;;;;;;5052710;28;20566;-64
2021/12/24 01:58:52;;;;;;;60.90;5.40;;;;;;;;;;5052423;28;20458;-65
2021/12/24 02:01:25;;;;;;;61.00;4.93;;;;;;;;;;5052361;28;20566;-64
2021/12/24 02:03:52;;;;;;;61.13;4.90;;;;;;;;;;5052336;28;20900;-66
2021/12/24 02:06:19;;;;;;;60.57;4.90;;;;;;;;;;5051060;28;20451;-64
2021/12/24 02:08:46;;;;;;;61.10;5.07;;;;;;;;;;5057194;28;20450;-65
2021/12/24 02:11:15;;;;;;;57.50;4.55;;;;;;;;;;5072284;28;20495;-64
2021/12/24 02:13:42;;;;;;;60.60;4.90;;;;;;;;;;5071971;28;20224;-64
2021/12/24 02:16:17;;;;;;;62.50;5.43;;;;;;;;;;5072231;28;20540;-65
2021/12/24 02:29:50;;;;;;;62.67;5.67;;;;;;;;;;5071954;28;20443;-64
2021/12/24 02:32:17;;;;;;;63.77;4.87;;;;;;;;;;5071070;28;20534;-65
2021/12/24 02:34:45;;;;;;;56.15;4.38;;;;;;;;;;5072127;28;20449;-65
2021/12/24 02:37:13;;;;;;;62.87;5.23;;;;;;;;;;5071012;28;20240;-64
2021/12/24 02:39:40;;;;;;;59.60;4.10;;;;;;;;;;5071636;28;20945;-64
2021/12/24 02:42:11;;;;;;;60.13;4.10;;;;;;;;;;5070015;28;20539;-64
2021/12/24 02:44:39;;;;;;;60.23;4.67;;;;;;;;;;5071592;28;20484;-64
2021/12/24 02:47:14;;;;;;;60.17;4.40;;;;;;;;;;5071944;28;20446;-65
2021/12/24 02:55:16;;;;;;;62.67;4.43;;;;;;;;;;5071730;28;20507;-64
2021/12/24 02:57:43;;;;;;;64.20;5.10;;;;;;;;;;5071373;28;21026;-64
2021/12/24 03:00:15;;;;;;;61.10;4.70;;;;;;;;;;5071458;28;20517;-65
2021/12/24 03:02:44;;;;;;;62.33;5.40;;;;;;;;;;5071467;28;20544;-64
2021/12/24 03:05:13;;;;;;;66.20;5.03;;;;;;;;;;5071412;28;20299;-65
2021/12/24 03:07:41;;;;;;;60.10;4.63;;;;;;;;;;5071197;28;20485;-65
2021/12/24 03:10:12;;;;;;;60.20;4.70;;;;;;;;;;5071821;28;20496;-65
2021/12/24 03:12:39;;;;;;;62.47;4.90;;;;;;;;;;5071606;28;20462;-64
2021/12/24 03:15:07;;;;;;;60.50;4.60;;;;;;;;;;5069750;28;20454;-64
2021/12/24 03:17:34;;;;;;;62.57;5.50;;;;;;;;;;5070818;28;20486;-65
2021/12/24 03:20:07;;;;;;;60.10;4.57;;;;;;;;;;5071300;28;20991;-64
2021/12/24 03:22:45;;;;;;;60.10;4.60;;;;;;;;;;5071427;28;20454;-64
2021/12/24 03:25:13;;;;;;;59.30;4.20;;;;;;;;;;5071618;28;20477;-64
2021/12/24 03:27:41;;;;;;;62.67;4.60;;;;;;;;;;5071159;28;20547;-65
2021/12/24 03:30:08;;;;;;;60.57;4.20;;;;;;;;;;5071339;28;20471;-65
2021/12/24 03:32:36;;;;;;;63.03;4.40;;;;;;;;;;5070800;28;20450;-64
2021/12/24 03:35:03;;;;;;;60.43;4.30;;;;;;;;;;5071273;28;20452;-65
2021/12/24 03:37:31;;;;;;;61.00;4.83;;;;;;;;;;5070954;28;20489;-65
2021/12/24 03:39:58;;;;;;;63.55;3.95;;;;;;;;;;5070590;28;20551;-64
2021/12/24 03:42:26;;;;;;;60.47;3.90;;;;;;;;;;5071242;28;20295;-65
2021/12/24 03:45:03;;;;;;;61.03;3.85;;;;;;;;;;5071061;28;20490;-64
2021/12/24 03:47:36;;;;;;;60.77;4.10;;;;;;;;;;5068959;28;20239;-66
2021/12/24 03:50:07;;;;;;;59.40;4.30;;;;;;;;;;5071416;28;20466;-65
2021/12/24 03:53:01;;;;;;;58.80;3.60;;;;;;;;;;5071277;28;20461;-64
2021/12/24 03:55:26;;;;;;;59.30;4.10;;;;;;;;;;5072695;28;20502;-65
2021/12/24 03:57:55;;;;;;;59.92;4.25;;;;;;;;;;5074938;28;20569;-65
2021/12/24 04:00:23;;;;;;;63.07;4.30;;;;;;;;;;5074847;28;20847;-64
2021/12/24 04:02:50;;;;;;;62.83;4.28;;;;;;;;;;5074786;28;20478;-64
2021/12/24 04:05:18;;;;;;;60.90;4.73;;;;;;;;;;5075038;28;20526;-65
2021/12/24 04:07:45;;;;;;;56.30;4.28;;;;;;;;;;5074435;28;20439;-64
2021/12/24 04:10:21;;;;;;;60.17;4.23;;;;;;;;;;5074598;28;20250;-64
2021/12/24 04:12:48;;;;;;;61.17;4.10;;;;;;;;;;5074793;28;20458;-64
2021/12/24 04:15:17;;;;;;;59.53;4.00;;;;;;;;;;5074737;28;20536;-64
2021/12/24 04:17:44;;;;;;;62.70;4.90;;;;;;;;;;5072323;28;20498;-65
2021/12/24 04:25:41;;;;;;;60.60;4.20;;;;;;;;;;5074665;28;20564;-64
2021/12/24 04:28:08;;;;;;;60.03;4.07;;;;;;;;;;5073806;28;20454;-65
2021/12/24 04:30:42;;;;;;;66.93;4.50;;;;;;;;;;5074231;28;20466;-64
2021/12/24 04:33:16;;;;;;;60.47;4.10;;;;;;;;;;5074138;28;20469;-64
2021/12/24 04:35:46;;;;;;;62.10;4.67;;;;;;;;;;5074593;28;20447;-64
2021/12/24 04:51:53;;;;;;;60.40;4.20;;;;;;;;;;5073644;28;20440;-65
2021/12/24 05:02:49;;;;;;;61.47;4.27;;;;;;;;;;5073286;28;20423;-64
2021/12/24 05:05:21;;;;;;;58.67;4.10;;;;;;;;;;5073208;28;20449;-63
2021/12/24 05:10:36;;;;;;;61.67;4.60;;;;;;;;;;5070882;28;20454;-65
2021/12/24 05:13:03;;;;;;;59.30;4.07;;;;;;;;;;5073175;28;20511;-64
2021/12/24 05:15:31;;;;;;;61.93;4.40;;;;;;;;;;5073536;28;20451;-64
2021/12/24 05:18:12;;;;;;;59.67;4.88;;;;;;;;;;5073262;28;20514;-64
2021/12/24 05:23:23;;;;;;;60.20;4.43;;;;;;;;;;5073431;28;20433;-64
2021/12/24 05:25:51;;;;;;;60.27;4.17;;;;;;;;;;5072751;28;20447;-65
2021/12/24 05:28:19;;;;;;;62.50;4.50;;;;;;;;;;5072444;28;20456;-65
2021/12/24 05:30:47;;;;;;;58.93;3.77;;;;;;;;;;5072737;28;20466;-64
2021/12/24 05:33:16;;;;;;;59.20;4.00;;;;;;;;;;5072622;28;20946;-65
2021/12/24 05:35:44;;;;;;;60.57;4.10;;;;;;;;;;5072712;28;20881;-64
2021/12/24 05:38:11;;;;;;;59.70;4.30;;;;;;;;;;5072871;28;20493;-64
2021/12/24 05:40:39;;;;;;;60.25;4.30;;;;;;;;;;5073358;28;20464;-64
2021/12/24 05:43:06;;;;;;;60.87;4.40;;;;;;;;;;5072412;28;20212;-65
2021/12/24 05:45:33;;;;;;;58.97;3.63;;;;;;;;;;5072544;28;20444;-64
2021/12/24 05:48:00;;;;;;;61.27;4.23;;;;;;;;;;5072320;28;20537;-64
2021/12/24 05:50:29;;;;;;;62.05;4.50;;;;;;;;;;5072268;28;20542;-63
2021/12/24 05:52:56;;;;;;;59.70;3.90;;;;;;;;;;5069923;28;20209;-64
2021/12/24 05:55:23;;;;;;;60.43;4.73;;;;;;;;;;5072935;28;20230;-64
2021/12/24 05:57:50;;;;;;;60.80;4.50;;;;;;;;;;5071992;28;20577;-64
2021/12/24 06:00:18;;;;;;;59.70;4.10;;;;;;;;;;5072052;28;20476;-64
2021/12/24 06:02:45;;;;;;;59.67;4.00;;;;;;;;;;5072244;28;20882;-65
2021/12/24 06:05:12;;;;;;;60.57;3.97;;;;;;;;;;5072600;28;20787;-64
2021/12/24 06:07:41;;;;;;;61.75;4.20;;;;;;;;;;5071751;28;21078;-65
2021/12/24 06:10:08;;;;;;;60.60;4.13;;;;;;;;;;5072592;28;20596;-64
2021/12/24 06:12:35;;;;;;;62.27;4.40;;;;;;;;;;5072303;28;20454;-65
2021/12/24 06:15:06;;;;;;;60.97;4.10;;;;;;;;;;5072284;28;20451;-65
2021/12/24 06:17:36;;;;;;;61.80;4.77;;;;;;;;;;5070849;28;20489;-65
2021/12/24 06:20:03;;;;;;;67.22;4.20;;;;;;;;;;5072332;28;20923;-65
2021/12/24 06:22:30;;;;;;;59.47;4.23;;;;;;;;;;5071967;28;20293;-64
2021/12/24 06:24:58;;;;;;;59.27;4.13;;;;;;;;;;5058013;28;20446;-65
2021/12/24 06:27:26;;;;;;;60.70;4.28;;;;;;;;;;5051480;28;20944;-64
2021/12/24 06:29:53;;;;;;;60.60;3.67;;;;;;;;;;5051536;28;20477;-65
2021/12/24 06:32:20;;;;;;;60.80;4.33;;;;;;;;;;5052143;28;20454;-64
2021/12/24 06:34:48;;;;;;;55.72;3.60;;;;;;;;;;5052270;28;20448;-64
2021/12/24 06:37:15;;;;;;;59.80;4.37;;;;;;;;;;5051633;28;20599;-65
2021/12/24 06:39:43;;;;;;;60.00;4.40;;;;;;;;;;5051876;28;20700;-65
2021/12/24 06:42:11;;;;;;;62.27;4.80;;;;;;;;;;5051783;28;20547;-65
2021/12/24 06:44:38;;;;;;;60.30;4.90;;;;;;;;;;5051825;28;20457;-64
2021/12/24 06:47:06;;;;;;;59.70;4.23;;;;;;;;;;5051561;28;20534;-65
2021/12/24 06:49:33;;;;;;;61.30;4.43;;;;;;;;;;5051780;28;20454;-65
2021/12/24 06:52:01;;;;;;;61.43;4.40;;;;;;;;;;5051283;28;20455;-65
2021/12/24 06:54:29;;;;;;;61.93;5.00;;;;;;;;;;5051500;28;20951;-66
2021/12/24 06:56:57;;;;;;;60.20;4.00;;;;;;;;;;5050320;28;20541;-65
2021/12/24 06:59:25;;;;;;;59.20;4.40;;;;;;;;;;5051402;28;21037;-65
2021/12/24 07:01:52;;;;;;;59.90;4.53;;;;;;;;;;5051469;28;20981;-65
2021/12/24 07:04:19;;;;;;;60.40;4.43;;;;;;;;;;5052005;28;20543;-65
2021/12/24 07:06:47;;;;;;;61.10;4.77;;;;;;;;;;5051734;28;20547;-65
2021/12/24 07:09:14;;;;;;;62.10;5.00;;;;;;;;;;5050854;28;20444;-64
2021/12/24 07:11:41;;;;;;;61.10;4.87;;;;;;;;;;5051249;28;20234;-64
2021/12/24 07:14:09;;;;;;;59.93;4.67;;;;;;;;;;5051799;28;20457;-65
2021/12/24 07:16:37;;;;;;;60.60;4.40;;;;;;;;;;5051329;28;20454;-64
2021/12/24 07:19:05;;;;;;;60.00;4.45;;;;;;;;;;5051058;28;20483;-64
2021/12/24 07:21:34;;;;;;;61.50;5.20;;;;;;;;;;5051492;28;20477;-64
2021/12/24 07:24:02;;;;;;;61.10;4.80;;;;;;;;;;5051240;28;20545;-64
2021/12/24 07:26:29;;;;;;;60.50;5.00;;;;;;;;;;5051397;28;20446;-64
2021/12/24 07:28:56;;;;;;;60.40;4.60;;;;;;;;;;5061186;28;20447;-64
2021/12/24 07:31:23;;;;;;;65.00;5.33;;;;;;;;;;5075190;28;20500;-64
2021/12/24 07:33:52;;;;;;;60.47;4.57;;;;;;;;;;5075374;28;20536;-64
2021/12/24 07:36:19;;;;;;;62.20;5.70;;;;;;;;;;5075409;28;20530;-65
2021/12/24 07:38:46;;;;;;;61.97;5.40;;;;;;;;;;5075087;28;20482;-64
2021/12/24 07:41:15;;;;;;;60.13;4.30;;;;;;;;;;5075737;28;20472;-65
2021/12/24 07:43:42;;;;;;;60.67;5.40;;;;;;;;;;5075211;28;20938;-64
2021/12/24 07:46:09;;;;;;;59.27;4.40;;;;;;;;;;5075304;28;20490;-64
2021/12/24 07:48:44;;;;;;;61.72;4.95;;;;;;;;;;5074979;28;20447;-64
2021/12/24 07:54:00;;;;;;;60.67;5.07;;;;;;;;;;5075141;28;20205;-64
2021/12/24 07:56:28;;;;;;;62.35;4.88;;;;;;;;;;5075144;28;20458;-64
2021/12/24 07:58:55;;;;;;;61.80;4.70;;;;;;;;;;5074463;28;20229;-64
2021/12/24 08:01:23;;;;;;;60.70;4.73;;;;;;;;;;5061707;28;20283;-64
2021/12/24 08:03:50;;;;;;;59.77;4.50;;;;;;;;;;5055082;28;20505;-65
2021/12/24 08:06:19;;;;;;;60.00;4.60;;;;;;;;;;5055039;28;20479;-65
2021/12/24 08:08:46;;;;;;;60.70;4.67;;;;;;;;;;5054712;28;20445;-65
2021/12/24 08:11:13;;;;;;;60.37;4.50;;;;;;;;;;5055022;28;20993;-63
2021/12/24 08:13:40;;;;;;;60.37;4.43;;;;;;;;;;5054386;28;20469;-64
2021/12/24 08:16:08;;;;;;;60.00;4.63;;;;;;;;;;5054610;28;20455;-64
2021/12/24 08:18:36;;;;;;;64.50;4.90;;;;;;;;;;5064336;28;20895;-64
2021/12/24 08:21:03;;;;;;;61.77;5.07;;;;;;;;;;5074730;28;20232;-64
2021/12/24 08:23:32;;;;;;;63.17;4.83;;;;;;;;;;5074446;28;20460;-64
2021/12/24 08:25:59;;;;;;;61.10;4.73;;;;;;;;;;5074536;28;20440;-64
2021/12/24 08:28:27;;;;;;;60.37;5.00;;;;;;;;;;5073767;28;20489;-65
2021/12/24 08:30:54;;;;;;;63.80;5.10;;;;;;;;;;5074569;28;20574;-65
2021/12/24 08:33:22;;;;;;;59.93;5.00;;;;;;;;;;5074431;28;20538;-64
2021/12/24 08:35:49;;;;;;;63.60;4.80;;;;;;;;;;5074561;28;20824;-63
2021/12/24 08:38:17;;;;;;;60.97;5.13;;;;;;;;;;5073970;28;20481;-63
2021/12/24 08:40:46;;;;;;;59.83;4.90;;;;;;;;;;5073507;28;20483;-65
2021/12/24 08:43:13;;;;;;;60.83;4.93;;;;;;;;;;5067083;28;20463;-64
2021/12/24 08:45:40;;;;;;;61.22;5.30;;;;;;;;;;5054223;28;20543;-64
2021/12/24 08:48:07;;;;;;;64.37;4.70;;;;;;;;;;5054017;28;20211;-64
2021/12/24 08:50:35;;;;;;;62.10;5.13;;;;;;;;;;5054017;28;20471;-64
2021/12/24 08:53:02;;;;;;;60.60;4.93;;;;;;;;;;5054159;28;20453;-64
2021/12/24 08:55:29;;;;;;;60.93;4.17;;;;;;;;;;5053984;28;20457;-65
2021/12/24 08:57:57;;;;;;;61.35;5.28;;;;;;;;;;5053974;28;20846;-64
2021/12/24 09:00:25;;;;;;;61.17;4.90;;;;;;;;;;5054205;28;20329;-64
2021/12/24 09:02:52;;;;;;;58.05;4.68;;;;;;;;;;5054023;28;20824;-64
2021/12/24 09:05:19;;;;;;;61.17;4.50;;;;;;;;;;5053835;28;20209;-64
2021/12/24 09:07:46;;;;;;;65.07;4.90;;;;;;;;;;5053723;28;20808;-64
2021/12/24 09:10:14;;;;;;;56.50;4.32;;;;;;;;;;5053591;28;20468;-63
2021/12/24 09:12:43;;;;;;;61.20;4.80;;;;;;;;;;5053689;28;20242;-64
2021/12/24 09:15:12;;;;;;;59.67;4.57;;;;;;;;;;5063080;28;20461;-64
2021/12/24 09:17:44;;;;;;;61.00;5.00;;;;;;;;;;5073605;28;20446;-64
2021/12/24 09:20:12;;;;;;;60.97;5.00;;;;;;;;;;5073586;28;20491;-64
2021/12/24 09:22:41;;;;;;;61.10;4.70;;;;;;;;;;5073334;28;20479;-66
2021/12/24 09:25:08;;;;;;;60.50;4.97;;;;;;;;;;5073753;28;20451;-65
2021/12/24 09:27:35;;;;;;;60.60;4.80;;;;;;;;;;5073418;28;20443;-64
2021/12/24 09:30:03;;;;;;;62.17;5.10;;;;;;;;;;5073540;28;20470;-64
2021/12/24 09:32:31;;;;;;;60.47;4.80;;;;;;;;;;5073299;28;20443;-65
2021/12/24 09:34:58;;;;;;;68.90;4.93;;;;;;;;;;5073286;28;20642;-65
2021/12/24 09:37:26;;;;;;;65.17;5.50;;;;;;;;;;5072958;28;20449;-65
2021/12/24 09:39:53;;;;;;;61.73;5.10;;;;;;;;;;5073228;28;20496;-64
2021/12/24 09:42:20;;;;;;;61.00;5.73;;;;;;;;;;5073280;28;20530;-65
2021/12/24 09:44:47;;;;;;;60.60;5.03;;;;;;;;;;5073025;28;20452;-64
2021/12/24 09:47:14;;;;;;;58.28;4.25;;;;;;;;;;5052889;28;20825;-65
2021/12/24 09:49:43;;;;;;;60.20;4.53;;;;;;;;;;5052874;28;20205;-64
2021/12/24 09:52:10;;;;;;;62.43;4.70;;;;;;;;;;5052353;28;20830;-65
2021/12/24 09:54:37;;;;;;;60.73;5.00;;;;;;;;;;5052914;28;20529;-64
2021/12/24 09:57:05;;;;;;;64.80;4.87;;;;;;;;;;5052972;28;20454;-66
2021/12/24 09:59:32;;;;;;;60.73;5.47;;;;;;;;;;5052624;28;20569;-64
2021/12/24 10:02:01;;;;;;;61.90;4.90;;;;;;;;;;5053178;28;20460;-65
2021/12/24 10:04:29;;;;;;;61.30;4.70;;;;;;;;;;5052640;28;20490;-65
2021/12/24 10:07:00;;;;;;;63.90;6.23;;;;;;;;;;5052893;28;20944;-64
2021/12/24 10:09:30;;;;;;;64.50;4.90;;;;;;;;;;5052563;28;20443;-66
2021/12/24 10:11:58;;;;;;;60.03;4.88;;;;;;;;;;5052527;28;20464;-65
2021/12/24 10:14:30;;;;;;;61.07;4.93;;;;;;;;;;5052617;28;20201;-65
2021/12/24 10:16:58;;;;;;;59.87;4.30;;;;;;;;;;5052233;28;20455;-65
2021/12/24 10:19:25;;;;;;;63.27;5.17;;;;;;;;;;5072203;28;20676;-64
2021/12/24 10:22:00;;;;;;;61.10;5.40;;;;;;;;;;5072489;28;20917;-64
2021/12/24 10:24:28;;;;;;;65.33;5.40;;;;;;;;;;5072540;28;20710;-66
2021/12/24 10:26:57;;;;;;;61.83;5.40;;;;;;;;;;5072293;28;20482;-66
2021/12/24 10:29:29;;;;;;;61.23;4.83;;;;;;;;;;5071882;28;21032;-65
2021/12/24 10:31:58;;;;;;;61.03;5.00;;;;;;;;;;5072694;28;20805;-64
2021/12/24 10:34:25;;;;;;;59.47;4.50;;;;;;;;;;5072646;28;20463;-64
2021/12/24 10:37:02;;;;;;;61.07;6.10;;;;;;;;;;5072254;28;20540;-65
2021/12/24 10:39:31;;;;;;;60.57;5.30;;;;;;;;;;5071599;28;20992;-65
2021/12/24 10:41:58;;;;;;;60.50;5.63;;;;;;;;;;5071955;28;20832;-65
2021/12/24 10:44:26;;;;;;;61.13;5.80;;;;;;;;;;5072217;28;20822;-65
2021/12/24 10:47:04;;;;;;;62.87;5.43;;;;;;;;;;5072292;28;20594;-65
2021/12/24 10:49:53;;;;;;;62.60;5.90;;;;;;;;;;5071102;28;20499;-65
2021/12/24 10:52:42;;;;;;;60.07;5.10;;;;;;;;;;5071914;28;20484;-66
2021/12/24 10:55:11;;;;;;;61.50;5.67;;;;;;;;;;5072234;28;20457;-65
2021/12/24 10:57:39;;;;;;;61.10;5.60;;;;;;;;;;5071754;28;20463;-65
2021/12/24 11:00:08;;;;;;;62.03;5.53;;;;;;;;;;5071711;28;20486;-66
2021/12/24 11:02:37;;;;;;;62.83;6.50;;;;;;;;;;5071686;28;20454;-65
2021/12/24 11:05:05;;;;;;;60.20;5.10;;;;;;;;;;5071727;28;20239;-65
2021/12/24 11:07:34;;;;;;;62.80;5.50;;;;;;;;;;5071833;28;20456;-65
2021/12/24 11:10:15;;;;;;;61.45;5.22;;;;;;;;;;5071923;28;20469;-65
2021/12/24 11:12:43;;;;;;;60.67;4.67;;;;;;;;;;5071844;28;20214;-65
2021/12/24 11:15:21;;;;;;;60.20;5.32;;;;;;;;;;5071683;28;20871;-65
2021/12/24 11:17:48;;;;;;;61.80;5.77;;;;;;;;;;5071608;28;20216;-65
2021/12/24 11:20:15;;;;;;;60.60;5.13;;;;;;;;;;5071219;28;20485;-64
2021/12/24 11:22:53;;;;;;;58.13;4.93;;;;;;;;;;5069501;28;20451;-64
2021/12/24 11:25:20;;;;;;;60.50;5.20;;;;;;;;;;5071098;28;20197;-65
2021/12/24 11:27:48;;;;;;;60.63;5.00;;;;;;;;;;5069240;28;20472;-65
2021/12/24 11:30:15;;;;;;;62.20;5.17;;;;;;;;;;5071638;28;20462;-66
2021/12/24 11:32:42;;;;;;;59.77;4.70;;;;;;;;;;5071523;28;20453;-65
2021/12/24 11:35:10;;;;;;;61.17;5.20;;;;;;;;;;5071577;28;20450;-65
2021/12/24 11:37:38;;;;;;;60.30;4.70;;;;;;;;;;5071121;28;20450;-66
2021/12/24 11:40:07;;;;;;;61.30;5.07;;;;;;;;;;5071086;28;20576;-66
2021/12/24 11:42:39;;;;;;;61.10;5.40;;;;;;;;;;5071302;28;20460;-64
2021/12/24 11:45:06;;;;;;;62.23;5.80;;;;;;;;;;5071962;28;20455;-65
2021/12/24 11:47:34;;;;;;;61.60;5.33;;;;;;;;;;5071554;28;20512;-65
2021/12/24 11:50:01;;;;;;;60.20;4.50;;;;;;;;;;5071276;28;20544;-65
2021/12/24 11:52:29;;;;;;;61.07;5.30;;;;;;;;;;5071206;28;20531;-65
2021/12/24 11:54:57;;;;;;;60.50;4.50;;;;;;;;;;5071420;28;20454;-65
2021/12/24 11:57:26;;;;;;;60.60;5.13;;;;;;;;;;5071040;28;20528;-64
2021/12/24 11:59:54;;;;;;;61.60;4.80;;;;;;;;;;5050530;28;20443;-64
2021/12/24 12:02:38;;;;;;;102.90;5.88;;;;;;;;;;5062422;28;20447;-64
2021/12/24 12:05:16;;;;;;;60.33;4.70;;;;;;;;;;5070633;28;20568;-65
2021/12/24 12:07:43;;;;;;;63.58;5.57;;;;;;;;;;5070839;28;20455;-63
2021/12/24 12:10:10;;;;;;;60.00;4.50;;;;;;;;;;5069190;28;20463;-66
2021/12/24 12:12:40;;;;;;;61.67;4.87;;;;;;;;;;5071073;28;20462;-64
2021/12/24 12:15:27;;;;;;;61.53;4.83;;;;;;;;;;5071170;28;20949;-64
2021/12/24 12:17:58;;;;;;;60.97;4.80;;;;;;;;;;5074613;28;20938;-64
2021/12/24 12:20:43;;;;;;;59.57;4.50;;;;;;;;;;5074987;28;20489;-65
2021/12/24 12:23:15;;;;;;;59.40;4.10;;;;;;;;;;5074810;28;20454;-65
2021/12/24 12:25:42;;;;;;;58.90;3.70;;;;;;;;;;5074725;28;20449;-64
2021/12/24 12:28:15;;;;;;;59.78;4.82;;;;;;;;;;5074319;28;20491;-65
2021/12/24 12:30:49;;;;;;;59.60;4.30;;;;;;;;;;5074479;28;20778;-64
2021/12/24 12:33:17;;;;;;;60.00;4.23;;;;;;;;;;5074675;28;20537;-64
2021/12/24 12:35:45;;;;;;;60.77;4.53;;;;;;;;;;5074609;28;20454;-64
2021/12/24 12:38:33;;;;;;;59.47;4.00;;;;;;;;;;5074292;28;20454;-64
2021/12/24 12:41:20;;;;;;;61.30;4.67;;;;;;;;;;5074456;28;20518;-64
2021/12/24 12:43:50;;;;;;;59.97;4.57;;;;;;;;;;5074481;28;20457;-64
2021/12/24 12:46:21;;;;;;;59.60;4.30;;;;;;;;;;5074236;28;20451;-64
2021/12/24 12:48:50;;;;;;;59.80;3.80;;;;;;;;;;5073939;28;21001;-65
2021/12/24 12:51:19;;;;;;;59.50;3.80;;;;;;;;;;5074329;28;20492;-65
2021/12/24 12:53:47;;;;;;;58.80;3.83;;;;;;;;;;5074157;28;20443;-64
2021/12/24 12:56:20;;;;;;;56.10;4.03;;;;;;;;;;5074073;28;20209;-64
2021/12/24 12:58:49;;;;;;;59.57;4.00;;;;;;;;;;5073932;28;20607;-65
2021/12/24 13:01:18;;;;;;;60.40;4.20;;;;;;;;;;5073785;28;20484;-64
2021/12/24 13:04:06;;;;;;;58.60;3.63;;;;;;;;;;5074131;28;20449;-64
2021/12/24 13:06:48;;;;;;;59.50;3.83;;;;;;;;;;5074131;28;20449;-63
2021/12/24 13:09:17;;;;;;;58.88;3.45;;;;;;;;;;5073422;28;20546;-66
2021/12/24 13:11:45;;;;;;;58.70;3.60;;;;;;;;;;5072717;28;20289;-69
2021/12/24 13:14:16;;;;;;;58.83;3.60;;;;;;;;;;5073411;28;20559;-64
2021/12/24 13:16:47;;;;;;;59.47;3.77;;;;;;;;;;5073502;28;20507;-64
2021/12/24 13:19:30;;;;;;;59.47;3.93;;;;;;;;;;5073265;28;20451;-64
2021/12/24 13:24:47;;;;;;;60.97;4.03;;;;;;;;;;5073603;28;20557;-65
2021/12/24 13:27:14;;;;;;;59.47;3.97;;;;;;;;;;5073246;28;20550;-66
2021/12/24 13:29:43;;;;;;;59.70;4.00;;;;;;;;;;5073552;28;20259;-64
2021/12/24 13:32:10;;;;;;;61.30;4.00;;;;;;;;;;5073412;28;20539;-64
2021/12/24 13:34:38;;;;;;;58.70;3.60;;;;;;;;;;5073170;28;20450;-64
2021/12/24 13:37:11;;;;;;;59.10;3.90;;;;;;;;;;5073483;28;20450;-66
2021/12/24 13:39:45;;;;;;;59.73;4.03;;;;;;;;;;5073033;28;20489;-66
2021/12/24 13:42:12;;;;;;;60.87;4.70;;;;;;;;;;5073156;28;20454;-64
2021/12/24 13:44:40;;;;;;;59.17;3.90;;;;;;;;;;5071023;28;20449;-64
2021/12/24 13:47:12;;;;;;;59.80;4.40;;;;;;;;;;5072789;28;20449;-68
2021/12/24 13:50:07;;;;;;;59.03;3.75;;;;;;;;;;5072938;28;20477;-64
2021/12/24 13:55:21;;;;;;;59.58;3.80;;;;;;;;;;5072962;28;20664;-64
2021/12/24 13:57:52;;;;;;;58.70;3.60;;;;;;;;;;5072911;28;20326;-64
2021/12/24 14:00:20;;;;;;;58.78;3.90;;;;;;;;;;5072727;28;20483;-66
2021/12/24 14:02:53;;;;;;;59.10;4.00;;;;;;;;;;5072874;28;20208;-65
2021/12/24 14:05:20;;;;;;;58.27;3.47;;;;;;;;;;5073336;28;20454;-64
2021/12/24 14:07:47;;;;;;;59.37;3.93;;;;;;;;;;5072488;28;20966;-65
2021/12/24 14:10:25;;;;;;;59.33;3.87;;;;;;;;;;5072737;28;20943;-64
2021/12/24 14:12:54;;;;;;;60.08;3.47;;;;;;;;;;5072686;28;20569;-65
2021/12/24 14:15:26;;;;;;;60.03;3.83;;;;;;;;;;5070670;28;20618;-64
2021/12/24 14:18:21;;;;;;;59.90;4.37;;;;;;;;;;5072449;28;20480;-64
2021/12/24 14:21:44;;;;;;;59.13;4.17;;;;;;;;;;5072394;28;21003;-64
2021/12/24 14:23:46;;;;;;;59.67;4.07;;;;;;;;;;5072189;28;20499;-65
2021/12/24 14:26:13;;;;;;;59.38;3.88;;;;;;;;;;5072418;28;20474;-65
2021/12/24 14:28:50;;;;;;;59.17;4.00;;;;;;;;;;5071978;28;20298;-65
2021/12/24 14:31:17;;;;;;;59.20;4.07;;;;;;;;;;5072490;28;20487;-65
2021/12/24 14:33:48;;;;;;;59.08;4.25;;;;;;;;;;5072364;28;20443;-65
2021/12/24 14:36:18;;;;;;;60.60;4.40;;;;;;;;;;5072741;28;20211;-65
2021/12/24 14:38:45;;;;;;;59.27;3.67;;;;;;;;;;5071659;28;20972;-65
2021/12/24 14:41:18;;;;;;;59.87;4.63;;;;;;;;;;5071836;28;20996;-65
2021/12/24 14:43:45;;;;;;;59.57;3.87;;;;;;;;;;5072154;28;20507;-65
2021/12/24 14:46:13;;;;;;;59.17;4.23;;;;;;;;;;5070514;28;20492;-65
2021/12/24 14:48:40;;;;;;;59.70;4.00;;;;;;;;;;5071914;28;20450;-65
2021/12/24 14:51:09;;;;;;;59.50;4.00;;;;;;;;;;5071959;28;20497;-65
2021/12/24 14:53:37;;;;;;;59.60;4.47;;;;;;;;;;5071890;28;20454;-66
2021/12/24 14:56:05;;;;;;;59.53;4.00;;;;;;;;;;5071852;28;20542;-65
2021/12/24 14:58:33;;;;;;;60.00;4.53;;;;;;;;;;5072037;28;20469;-64
2021/12/24 15:01:01;;;;;;;60.20;4.57;;;;;;;;;;5071738;28;21093;-65
2021/12/24 15:03:30;;;;;;;60.20;4.57;;;;;;;;;;5071734;28;20454;-64
2021/12/24 15:05:58;;;;;;;61.20;5.87;;;;;;;;;;5071856;28;20499;-65
2021/12/24 15:08:27;;;;;;;59.00;4.13;;;;;;;;;;5071372;28;20536;-64
2021/12/24 15:10:58;;;;;;;60.97;4.90;;;;;;;;;;5071700;28;20557;-64
2021/12/24 15:13:27;;;;;;;60.17;4.20;;;;;;;;;;5071548;28;20524;-64
2021/12/24 15:15:54;;;;;;;59.10;3.97;;;;;;;;;;5071857;28;20462;-65
2021/12/24 15:18:22;;;;;;;59.87;3.77;;;;;;;;;;5058814;28;20890;-64
2021/12/24 15:20:49;;;;;;;59.60;3.80;;;;;;;;;;5051400;28;20491;-63
2021/12/24 15:23:16;;;;;;;59.27;3.80;;;;;;;;;;5051414;28;20451;-65
2021/12/24 15:25:45;;;;;;;58.90;3.43;;;;;;;;;;5051537;28;20521;-64
2021/12/24 15:28:15;;;;;;;59.00;3.80;;;;;;;;;;5051373;28;20915;-64
2021/12/24 15:30:42;;;;;;;58.83;3.60;;;;;;;;;;5051775;28;20467;-65
2021/12/24 15:33:10;;;;;;;59.30;3.50;;;;;;;;;;5051495;28;21058;-64
2021/12/24 15:35:37;;;;;;;58.70;3.50;;;;;;;;;;5051385;28;20473;-65
2021/12/24 15:38:06;;;;;;;60.17;3.73;;;;;;;;;;5051602;28;20456;-64
2021/12/24 15:40:34;;;;;;;60.53;4.20;;;;;;;;;;5051479;28;20490;-65
2021/12/24 15:43:03;;;;;;;61.20;4.07;;;;;;;;;;5051380;28;20213;-64
2021/12/24 15:45:30;;;;;;;63.27;4.20;;;;;;;;;;5051424;28;20920;-65
2021/12/24 15:47:57;;;;;;;62.23;4.70;;;;;;;;;;5050781;28;20951;-65
2021/12/24 15:50:24;;;;;;;61.60;4.27;;;;;;;;;;5052081;28;20469;-66
2021/12/24 15:52:51;;;;;;;60.53;4.60;;;;;;;;;;5055422;28;20448;-65
2021/12/24 15:55:19;;;;;;;59.20;3.90;;;;;;;;;;5055291;28;20451;-65
2021/12/24 15:57:46;;;;;;;63.17;7.63;;;;;;;;;;5055156;28;20806;-65
2021/12/24 16:00:15;;;;;;;61.83;6.17;;;;;;;;;;5055626;28;20471;-65
2021/12/24 16:02:42;;;;;;;61.47;7.03;;;;;;;;;;5055037;28;20830;-64
2021/12/24 16:05:10;;;;;;;61.07;6.23;;;;;;;;;;5055062;28;20461;-65
2021/12/24 16:07:37;;;;;;;60.80;5.53;;;;;;;;;;5054906;28;20547;-65
2021/12/24 16:10:04;;;;;;;59.03;4.90;;;;;;;;;;5054703;28;20316;-65